sensor_id;sensor_type;location;lat;lon;timestamp;P1;durP1;ratioP1;P2;durP2;ratioP2
51578;SDS011;47998;53.242;6.386;2023-08-24T00:00:38;92.72;;;9.30;;
51578;SDS011;47998;53.242;6.386;2023-08-24T00:03:05;11.95;;;5.70;;
51578;SDS011;47998;53.242;6.386;2023-08-24T00:05:35;9.75;;;6.75;;
51578;SDS011;47998;53.242;6.386;2023-08-24T00:08:04;10.38;;;6.65;;
51578;SDS011;47998;53.242;6.386;2023-08-24T00:10:34;10.75;;;6.55;;
51578;SDS011;47998;53.242;6.386;2023-08-24T00:13:00;10.75;;;5.90;;
51578;SDS011;47998;53.242;6.386;2023-08-24T00:15:27;7.50;;;5.13;;
51578;SDS011;47998;53.242;6.386;2023-08-24T00:17:53;8.95;;;6.00;;
51578;SDS011;47998;53.242;6.386;2023-08-24T00:20:19;10.98;;;7.20;;
51578;SDS011;47998;53.242;6.386;2023-08-24T00:22:45;11.32;;;7.82;;
51578;SDS011;47998;53.242;6.386;2023-08-24T00:25:11;13.05;;;7.88;;
51578;SDS011;47998;53.242;6.386;2023-08-24T00:27:38;23.63;;;8.85;;
51578;SDS011;47998;53.242;6.386;2023-08-24T00:30:04;11.75;;;8.55;;
51578;SDS011;47998;53.242;6.386;2023-08-24T00:32:32;25.63;;;9.30;;
51578;SDS011;47998;53.242;6.386;2023-08-24T00:35:03;19.52;;;8.55;;
51578;SDS011;47998;53.242;6.386;2023-08-24T00:37:31;15.50;;;7.45;;
51578;SDS011;47998;53.242;6.386;2023-08-24T00:40:01;22.63;;;9.05;;
51578;SDS011;47998;53.242;6.386;2023-08-24T00:42:36;14.13;;;9.10;;
51578;SDS011;47998;53.242;6.386;2023-08-24T00:45:03;16.35;;;9.45;;
51578;SDS011;47998;53.242;6.386;2023-08-24T00:47:29;15.52;;;10.00;;
51578;SDS011;47998;53.242;6.386;2023-08-24T00:49:55;18.70;;;10.13;;
51578;SDS011;47998;53.242;6.386;2023-08-24T00:52:21;16.05;;;9.02;;
51578;SDS011;47998;53.242;6.386;2023-08-24T00:54:49;16.65;;;9.40;;
51578;SDS011;47998;53.242;6.386;2023-08-24T00:57:15;15.18;;;9.75;;
51578;SDS011;47998;53.242;6.386;2023-08-24T00:59:40;13.00;;;8.98;;
51578;SDS011;47998;53.242;6.386;2023-08-24T01:02:06;20.15;;;11.60;;
51578;SDS011;47998;53.242;6.386;2023-08-24T01:04:32;14.65;;;10.52;;
51578;SDS011;47998;53.242;6.386;2023-08-24T01:06:58;13.90;;;9.85;;
51578;SDS011;47998;53.242;6.386;2023-08-24T01:09:25;18.50;;;11.20;;
51578;SDS011;47998;53.242;6.386;2023-08-24T01:17:27;15.35;;;9.93;;
51578;SDS011;47998;53.242;6.386;2023-08-24T01:19:55;13.52;;;8.40;;
51578;SDS011;47998;53.242;6.386;2023-08-24T01:24:53;12.20;;;8.60;;
51578;SDS011;47998;53.242;6.386;2023-08-24T01:27:26;12.43;;;8.43;;
51578;SDS011;47998;53.242;6.386;2023-08-24T01:29:54;12.63;;;9.07;;
51578;SDS011;47998;53.242;6.386;2023-08-24T01:32:22;13.45;;;9.60;;
51578;SDS011;47998;53.242;6.386;2023-08-24T01:34:48;16.85;;;10.82;;
51578;SDS011;47998;53.242;6.386;2023-08-24T01:37:13;15.75;;;9.90;;
51578;SDS011;47998;53.242;6.386;2023-08-24T01:39:43;19.27;;;11.75;;
51578;SDS011;47998;53.242;6.386;2023-08-24T01:42:16;18.13;;;11.23;;
51578;SDS011;47998;53.242;6.386;2023-08-24T01:44:47;14.27;;;10.40;;
51578;SDS011;47998;53.242;6.386;2023-08-24T01:47:17;14.43;;;10.10;;
51578;SDS011;47998;53.242;6.386;2023-08-24T01:49:43;14.20;;;11.13;;
51578;SDS011;47998;53.242;6.386;2023-08-24T01:52:10;17.13;;;11.23;;
51578;SDS011;47998;53.242;6.386;2023-08-24T01:54:36;22.23;;;12.77;;
51578;SDS011;47998;53.242;6.386;2023-08-24T01:57:04;22.70;;;14.00;;
51578;SDS011;47998;53.242;6.386;2023-08-24T01:59:31;21.10;;;13.18;;
51578;SDS011;47998;53.242;6.386;2023-08-24T02:01:57;27.40;;;14.35;;
51578;SDS011;47998;53.242;6.386;2023-08-24T02:04:22;24.95;;;16.13;;
51578;SDS011;47998;53.242;6.386;2023-08-24T02:06:48;22.00;;;14.80;;
51578;SDS011;47998;53.242;6.386;2023-08-24T02:09:14;29.42;;;15.15;;
51578;SDS011;47998;53.242;6.386;2023-08-24T02:11:39;23.58;;;14.52;;
51578;SDS011;47998;53.242;6.386;2023-08-24T02:14:05;30.40;;;15.30;;
51578;SDS011;47998;53.242;6.386;2023-08-24T02:16:31;28.52;;;15.30;;
51578;SDS011;47998;53.242;6.386;2023-08-24T02:18:56;21.02;;;13.05;;
51578;SDS011;47998;53.242;6.386;2023-08-24T02:21:22;21.30;;;11.90;;
51578;SDS011;47998;53.242;6.386;2023-08-24T02:23:48;15.93;;;10.10;;
51578;SDS011;47998;53.242;6.386;2023-08-24T02:26:14;21.05;;;11.13;;
51578;SDS011;47998;53.242;6.386;2023-08-24T02:28:39;20.10;;;11.82;;
51578;SDS011;47998;53.242;6.386;2023-08-24T02:31:05;22.98;;;13.10;;
51578;SDS011;47998;53.242;6.386;2023-08-24T02:33:31;16.77;;;11.38;;
51578;SDS011;47998;53.242;6.386;2023-08-24T02:35:57;15.77;;;10.00;;
51578;SDS011;47998;53.242;6.386;2023-08-24T02:38:23;13.88;;;10.40;;
51578;SDS011;47998;53.242;6.386;2023-08-24T02:40:49;14.88;;;10.00;;
51578;SDS011;47998;53.242;6.386;2023-08-24T02:43:24;15.75;;;9.60;;
51578;SDS011;47998;53.242;6.386;2023-08-24T02:45:50;14.00;;;9.63;;
51578;SDS011;47998;53.242;6.386;2023-08-24T02:48:16;10.13;;;7.90;;
51578;SDS011;47998;53.242;6.386;2023-08-24T02:50:45;10.68;;;7.57;;
51578;SDS011;47998;53.242;6.386;2023-08-24T02:53:12;10.88;;;7.90;;
51578;SDS011;47998;53.242;6.386;2023-08-24T02:55:38;11.02;;;8.25;;
51578;SDS011;47998;53.242;6.386;2023-08-24T02:58:04;13.52;;;8.63;;
51578;SDS011;47998;53.242;6.386;2023-08-24T03:00:32;15.80;;;10.32;;
51578;SDS011;47998;53.242;6.386;2023-08-24T03:02:58;18.70;;;12.85;;
51578;SDS011;47998;53.242;6.386;2023-08-24T03:05:23;12.70;;;9.60;;
51578;SDS011;47998;53.242;6.386;2023-08-24T03:07:49;12.40;;;9.23;;
51578;SDS011;47998;53.242;6.386;2023-08-24T03:10:15;16.48;;;9.07;;
51578;SDS011;47998;53.242;6.386;2023-08-24T03:12:41;13.77;;;9.45;;
51578;SDS011;47998;53.242;6.386;2023-08-24T03:15:07;14.20;;;9.68;;
51578;SDS011;47998;53.242;6.386;2023-08-24T03:17:32;16.45;;;11.02;;
51578;SDS011;47998;53.242;6.386;2023-08-24T03:19:58;17.75;;;10.82;;
51578;SDS011;47998;53.242;6.386;2023-08-24T03:22:24;17.75;;;10.82;;
51578;SDS011;47998;53.242;6.386;2023-08-24T03:24:49;19.92;;;11.40;;
51578;SDS011;47998;53.242;6.386;2023-08-24T03:27:16;14.65;;;10.00;;
51578;SDS011;47998;53.242;6.386;2023-08-24T03:29:41;14.13;;;9.13;;
51578;SDS011;47998;53.242;6.386;2023-08-24T03:32:07;13.05;;;9.07;;
51578;SDS011;47998;53.242;6.386;2023-08-24T03:34:33;17.77;;;10.35;;
51578;SDS011;47998;53.242;6.386;2023-08-24T03:36:58;13.13;;;8.85;;
51578;SDS011;47998;53.242;6.386;2023-08-24T03:39:29;15.35;;;9.88;;
51578;SDS011;47998;53.242;6.386;2023-08-24T03:41:55;15.52;;;10.00;;
51578;SDS011;47998;53.242;6.386;2023-08-24T03:44:20;14.63;;;9.93;;
51578;SDS011;47998;53.242;6.386;2023-08-24T03:46:46;17.08;;;9.90;;
51578;SDS011;47998;53.242;6.386;2023-08-24T03:49:12;15.13;;;10.27;;
51578;SDS011;47998;53.242;6.386;2023-08-24T03:51:38;14.57;;;9.43;;
51578;SDS011;47998;53.242;6.386;2023-08-24T03:54:04;15.60;;;9.57;;
51578;SDS011;47998;53.242;6.386;2023-08-24T03:56:30;21.02;;;13.00;;
51578;SDS011;47998;53.242;6.386;2023-08-24T03:58:57;21.15;;;12.95;;
51578;SDS011;47998;53.242;6.386;2023-08-24T04:01:23;20.40;;;13.30;;
51578;SDS011;47998;53.242;6.386;2023-08-24T04:03:48;25.60;;;15.57;;
51578;SDS011;47998;53.242;6.386;2023-08-24T04:06:17;27.23;;;16.27;;
51578;SDS011;47998;53.242;6.386;2023-08-24T04:08:43;18.90;;;13.98;;
51578;SDS011;47998;53.242;6.386;2023-08-24T04:11:08;36.85;;;16.58;;
51578;SDS011;47998;53.242;6.386;2023-08-24T04:13:34;23.55;;;14.70;;
51578;SDS011;47998;53.242;6.386;2023-08-24T04:16:00;22.88;;;15.90;;
51578;SDS011;47998;53.242;6.386;2023-08-24T04:18:25;21.35;;;14.55;;
51578;SDS011;47998;53.242;6.386;2023-08-24T04:20:52;28.00;;;15.50;;
51578;SDS011;47998;53.242;6.386;2023-08-24T04:23:24;27.85;;;15.82;;
51578;SDS011;47998;53.242;6.386;2023-08-24T04:25:53;33.17;;;16.55;;
51578;SDS011;47998;53.242;6.386;2023-08-24T04:28:19;23.40;;;13.90;;
51578;SDS011;47998;53.242;6.386;2023-08-24T04:30:51;17.58;;;12.00;;
51578;SDS011;47998;53.242;6.386;2023-08-24T04:35:47;26.10;;;14.38;;
51578;SDS011;47998;53.242;6.386;2023-08-24T04:38:14;25.13;;;13.77;;
51578;SDS011;47998;53.242;6.386;2023-08-24T04:40:45;30.38;;;14.68;;
51578;SDS011;47998;53.242;6.386;2023-08-24T04:43:11;32.88;;;17.10;;
51578;SDS011;47998;53.242;6.386;2023-08-24T04:45:37;26.27;;;15.10;;
51578;SDS011;47998;53.242;6.386;2023-08-24T04:48:03;26.30;;;16.00;;
51578;SDS011;47998;53.242;6.386;2023-08-24T04:50:29;27.90;;;15.70;;
51578;SDS011;47998;53.242;6.386;2023-08-24T04:52:55;32.22;;;16.33;;
51578;SDS011;47998;53.242;6.386;2023-08-24T04:55:20;29.75;;;17.02;;
51578;SDS011;47998;53.242;6.386;2023-08-24T04:57:46;32.28;;;17.17;;
51578;SDS011;47998;53.242;6.386;2023-08-24T05:00:12;34.75;;;17.27;;
51578;SDS011;47998;53.242;6.386;2023-08-24T05:02:41;22.67;;;13.90;;
51578;SDS011;47998;53.242;6.386;2023-08-24T05:05:07;25.48;;;15.43;;
51578;SDS011;47998;53.242;6.386;2023-08-24T05:07:39;32.95;;;16.73;;
51578;SDS011;47998;53.242;6.386;2023-08-24T05:10:06;32.63;;;16.58;;
51578;SDS011;47998;53.242;6.386;2023-08-24T05:12:32;33.42;;;16.98;;
51578;SDS011;47998;53.242;6.386;2023-08-24T05:15:03;31.67;;;16.67;;
51578;SDS011;47998;53.242;6.386;2023-08-24T05:17:31;29.77;;;16.52;;
51578;SDS011;47998;53.242;6.386;2023-08-24T05:19:57;29.38;;;15.60;;
51578;SDS011;47998;53.242;6.386;2023-08-24T05:22:24;28.13;;;17.38;;
51578;SDS011;47998;53.242;6.386;2023-08-24T05:24:50;29.17;;;15.68;;
51578;SDS011;47998;53.242;6.386;2023-08-24T05:27:15;24.33;;;15.05;;
51578;SDS011;47998;53.242;6.386;2023-08-24T05:29:44;20.15;;;13.57;;
51578;SDS011;47998;53.242;6.386;2023-08-24T05:32:10;23.23;;;14.05;;
51578;SDS011;47998;53.242;6.386;2023-08-24T05:34:36;24.65;;;14.35;;
51578;SDS011;47998;53.242;6.386;2023-08-24T05:37:01;27.33;;;15.65;;
51578;SDS011;47998;53.242;6.386;2023-08-24T05:39:27;27.45;;;13.95;;
51578;SDS011;47998;53.242;6.386;2023-08-24T05:41:53;20.65;;;12.50;;
51578;SDS011;47998;53.242;6.386;2023-08-24T05:44:19;22.27;;;13.07;;
51578;SDS011;47998;53.242;6.386;2023-08-24T05:46:49;26.27;;;13.82;;
51578;SDS011;47998;53.242;6.386;2023-08-24T05:49:15;20.63;;;12.20;;
51578;SDS011;47998;53.242;6.386;2023-08-24T05:51:41;28.15;;;12.32;;
51578;SDS011;47998;53.242;6.386;2023-08-24T05:54:07;20.77;;;12.10;;
51578;SDS011;47998;53.242;6.386;2023-08-24T05:56:33;22.88;;;11.75;;
51578;SDS011;47998;53.242;6.386;2023-08-24T05:58:58;16.83;;;12.48;;
51578;SDS011;47998;53.242;6.386;2023-08-24T06:01:25;23.65;;;12.13;;
51578;SDS011;47998;53.242;6.386;2023-08-24T06:03:51;14.52;;;10.50;;
51578;SDS011;47998;53.242;6.386;2023-08-24T06:06:17;20.30;;;12.38;;
51578;SDS011;47998;53.242;6.386;2023-08-24T06:08:43;17.58;;;12.35;;
51578;SDS011;47998;53.242;6.386;2023-08-24T06:11:09;15.45;;;11.13;;
51578;SDS011;47998;53.242;6.386;2023-08-24T06:13:35;14.02;;;10.13;;
51578;SDS011;47998;53.242;6.386;2023-08-24T06:16:01;18.73;;;10.18;;
51578;SDS011;47998;53.242;6.386;2023-08-24T06:18:27;15.02;;;9.27;;
51578;SDS011;47998;53.242;6.386;2023-08-24T06:20:53;17.20;;;9.25;;
51578;SDS011;47998;53.242;6.386;2023-08-24T06:23:20;19.15;;;9.63;;
51578;SDS011;47998;53.242;6.386;2023-08-24T06:25:47;14.05;;;8.85;;
51578;SDS011;47998;53.242;6.386;2023-08-24T06:28:13;17.08;;;9.52;;
51578;SDS011;47998;53.242;6.386;2023-08-24T06:30:39;14.75;;;9.30;;
51578;SDS011;47998;53.242;6.386;2023-08-24T06:33:06;12.50;;;9.68;;
51578;SDS011;47998;53.242;6.386;2023-08-24T06:35:32;17.55;;;10.25;;
51578;SDS011;47998;53.242;6.386;2023-08-24T06:37:59;17.00;;;8.98;;
51578;SDS011;47998;53.242;6.386;2023-08-24T06:40:25;15.73;;;9.75;;
51578;SDS011;47998;53.242;6.386;2023-08-24T06:42:50;14.43;;;9.77;;
51578;SDS011;47998;53.242;6.386;2023-08-24T06:45:19;15.68;;;10.13;;
51578;SDS011;47998;53.242;6.386;2023-08-24T06:47:49;15.93;;;10.05;;
51578;SDS011;47998;53.242;6.386;2023-08-24T06:50:16;14.60;;;10.02;;
51578;SDS011;47998;53.242;6.386;2023-08-24T06:52:44;16.05;;;9.32;;
51578;SDS011;47998;53.242;6.386;2023-08-24T06:55:10;10.63;;;8.27;;
51578;SDS011;47998;53.242;6.386;2023-08-24T06:57:37;16.88;;;8.68;;
51578;SDS011;47998;53.242;6.386;2023-08-24T07:00:03;14.77;;;8.00;;
51578;SDS011;47998;53.242;6.386;2023-08-24T07:02:34;12.07;;;7.65;;
51578;SDS011;47998;53.242;6.386;2023-08-24T07:05:03;11.02;;;7.25;;
51578;SDS011;47998;53.242;6.386;2023-08-24T07:07:34;11.35;;;5.53;;
51578;SDS011;47998;53.242;6.386;2023-08-24T07:10:00;9.35;;;4.28;;
51578;SDS011;47998;53.242;6.386;2023-08-24T07:12:26;6.43;;;3.80;;
51578;SDS011;47998;53.242;6.386;2023-08-24T07:14:54;5.93;;;3.03;;
51578;SDS011;47998;53.242;6.386;2023-08-24T07:17:20;10.27;;;3.38;;
51578;SDS011;47998;53.242;6.386;2023-08-24T07:19:51;7.88;;;4.05;;
51578;SDS011;47998;53.242;6.386;2023-08-24T07:22:17;11.82;;;4.25;;
51578;SDS011;47998;53.242;6.386;2023-08-24T07:24:43;8.57;;;4.18;;
51578;SDS011;47998;53.242;6.386;2023-08-24T07:27:08;6.40;;;2.97;;
51578;SDS011;47998;53.242;6.386;2023-08-24T07:29:35;7.95;;;3.05;;
51578;SDS011;47998;53.242;6.386;2023-08-24T07:32:00;7.13;;;2.63;;
51578;SDS011;47998;53.242;6.386;2023-08-24T07:34:26;12.80;;;2.50;;
51578;SDS011;47998;53.242;6.386;2023-08-24T07:36:54;7.13;;;2.47;;
51578;SDS011;47998;53.242;6.386;2023-08-24T07:39:20;8.10;;;2.50;;
51578;SDS011;47998;53.242;6.386;2023-08-24T07:41:46;4.18;;;2.25;;
51578;SDS011;47998;53.242;6.386;2023-08-24T07:44:12;4.95;;;2.50;;
51578;SDS011;47998;53.242;6.386;2023-08-24T07:46:40;4.97;;;2.80;;
51578;SDS011;47998;53.242;6.386;2023-08-24T07:49:06;6.85;;;2.67;;
51578;SDS011;47998;53.242;6.386;2023-08-24T07:51:34;5.53;;;3.42;;
51578;SDS011;47998;53.242;6.386;2023-08-24T07:54:00;5.10;;;2.50;;
51578;SDS011;47998;53.242;6.386;2023-08-24T07:56:26;5.60;;;2.30;;
51578;SDS011;47998;53.242;6.386;2023-08-24T07:58:52;6.97;;;2.33;;
51578;SDS011;47998;53.242;6.386;2023-08-24T08:01:17;4.03;;;1.88;;
51578;SDS011;47998;53.242;6.386;2023-08-24T08:03:43;3.65;;;2.03;;
51578;SDS011;47998;53.242;6.386;2023-08-24T08:06:09;5.53;;;2.28;;
51578;SDS011;47998;53.242;6.386;2023-08-24T08:08:35;7.57;;;3.08;;
51578;SDS011;47998;53.242;6.386;2023-08-24T08:11:05;5.50;;;1.85;;
51578;SDS011;47998;53.242;6.386;2023-08-24T08:13:31;5.38;;;2.05;;
51578;SDS011;47998;53.242;6.386;2023-08-24T08:16:00;9.38;;;2.53;;
51578;SDS011;47998;53.242;6.386;2023-08-24T08:18:30;4.85;;;1.88;;
51578;SDS011;47998;53.242;6.386;2023-08-24T08:20:57;9.15;;;2.28;;
51578;SDS011;47998;53.242;6.386;2023-08-24T08:23:23;7.40;;;2.60;;
51578;SDS011;47998;53.242;6.386;2023-08-24T08:25:49;5.75;;;2.75;;
51578;SDS011;47998;53.242;6.386;2023-08-24T08:28:15;6.43;;;2.75;;
51578;SDS011;47998;53.242;6.386;2023-08-24T08:30:42;4.78;;;2.47;;
51578;SDS011;47998;53.242;6.386;2023-08-24T08:33:08;7.03;;;2.53;;
51578;SDS011;47998;53.242;6.386;2023-08-24T08:35:35;6.35;;;3.13;;
51578;SDS011;47998;53.242;6.386;2023-08-24T08:38:03;5.65;;;2.70;;
51578;SDS011;47998;53.242;6.386;2023-08-24T08:40:32;8.23;;;3.25;;
51578;SDS011;47998;53.242;6.386;2023-08-24T08:43:02;6.35;;;3.67;;
51578;SDS011;47998;53.242;6.386;2023-08-24T08:45:28;7.15;;;3.85;;
51578;SDS011;47998;53.242;6.386;2023-08-24T08:48:00;7.00;;;3.50;;
51578;SDS011;47998;53.242;6.386;2023-08-24T08:50:28;9.15;;;3.08;;
51578;SDS011;47998;53.242;6.386;2023-08-24T08:52:57;7.55;;;4.30;;
51578;SDS011;47998;53.242;6.386;2023-08-24T08:55:23;7.30;;;3.42;;
51578;SDS011;47998;53.242;6.386;2023-08-24T08:57:51;4.75;;;2.95;;
51578;SDS011;47998;53.242;6.386;2023-08-24T09:00:23;7.00;;;3.30;;
51578;SDS011;47998;53.242;6.386;2023-08-24T09:02:49;7.28;;;3.40;;
51578;SDS011;47998;53.242;6.386;2023-08-24T09:05:18;8.25;;;4.03;;
51578;SDS011;47998;53.242;6.386;2023-08-24T09:07:51;7.05;;;3.35;;
51578;SDS011;47998;53.242;6.386;2023-08-24T09:10:21;6.30;;;3.72;;
51578;SDS011;47998;53.242;6.386;2023-08-24T09:12:48;10.40;;;3.67;;
51578;SDS011;47998;53.242;6.386;2023-08-24T09:15:35;8.15;;;4.40;;
51578;SDS011;47998;53.242;6.386;2023-08-24T09:18:00;21.33;;;3.92;;
51578;SDS011;47998;53.242;6.386;2023-08-24T09:20:31;5.78;;;4.00;;
51578;SDS011;47998;53.242;6.386;2023-08-24T09:23:00;10.38;;;3.80;;
51578;SDS011;47998;53.242;6.386;2023-08-24T09:25:28;7.53;;;3.97;;
51578;SDS011;47998;53.242;6.386;2023-08-24T09:28:02;8.65;;;4.13;;
51578;SDS011;47998;53.242;6.386;2023-08-24T09:30:36;8.85;;;4.00;;
51578;SDS011;47998;53.242;6.386;2023-08-24T09:33:09;9.90;;;4.45;;
51578;SDS011;47998;53.242;6.386;2023-08-24T09:35:36;10.48;;;4.30;;
51578;SDS011;47998;53.242;6.386;2023-08-24T09:38:20;7.30;;;3.90;;
51578;SDS011;47998;53.242;6.386;2023-08-24T09:40:50;7.43;;;4.68;;
51578;SDS011;47998;53.242;6.386;2023-08-24T09:43:19;8.90;;;4.22;;
51578;SDS011;47998;53.242;6.386;2023-08-24T09:45:55;7.35;;;4.45;;
51578;SDS011;47998;53.242;6.386;2023-08-24T09:48:24;7.85;;;4.65;;
51578;SDS011;47998;53.242;6.386;2023-08-24T09:50:50;7.30;;;4.40;;
51578;SDS011;47998;53.242;6.386;2023-08-24T09:53:20;8.15;;;3.90;;
51578;SDS011;47998;53.242;6.386;2023-08-24T09:56:08;7.32;;;3.70;;
51578;SDS011;47998;53.242;6.386;2023-08-24T09:58:34;6.53;;;4.35;;
51578;SDS011;47998;53.242;6.386;2023-08-24T10:01:04;8.13;;;4.45;;
51578;SDS011;47998;53.242;6.386;2023-08-24T10:03:32;10.40;;;5.05;;
51578;SDS011;47998;53.242;6.386;2023-08-24T10:05:59;8.88;;;4.10;;
51578;SDS011;47998;53.242;6.386;2023-08-24T10:08:27;10.25;;;4.60;;
51578;SDS011;47998;53.242;6.386;2023-08-24T10:10:56;9.20;;;4.43;;
51578;SDS011;47998;53.242;6.386;2023-08-24T10:13:38;10.55;;;4.55;;
51578;SDS011;47998;53.242;6.386;2023-08-24T10:16:08;7.07;;;4.07;;
51578;SDS011;47998;53.242;6.386;2023-08-24T10:18:36;10.23;;;4.57;;
51578;SDS011;47998;53.242;6.386;2023-08-24T10:21:02;13.07;;;3.88;;
51578;SDS011;47998;53.242;6.386;2023-08-24T10:23:31;9.63;;;4.78;;
51578;SDS011;47998;53.242;6.386;2023-08-24T10:25:59;7.25;;;4.35;;
51578;SDS011;47998;53.242;6.386;2023-08-24T10:28:32;8.90;;;4.32;;
51578;SDS011;47998;53.242;6.386;2023-08-24T10:30:58;21.55;;;5.50;;
51578;SDS011;47998;53.242;6.386;2023-08-24T10:33:26;10.32;;;5.40;;
51578;SDS011;47998;53.242;6.386;2023-08-24T10:35:53;11.50;;;5.20;;
51578;SDS011;47998;53.242;6.386;2023-08-24T10:38:22;14.90;;;5.25;;
51578;SDS011;47998;53.242;6.386;2023-08-24T10:40:50;10.25;;;5.25;;
51578;SDS011;47998;53.242;6.386;2023-08-24T10:43:16;9.15;;;5.50;;
51578;SDS011;47998;53.242;6.386;2023-08-24T10:48:28;12.75;;;6.25;;
51578;SDS011;47998;53.242;6.386;2023-08-24T10:53:45;14.45;;;7.13;;
51578;SDS011;47998;53.242;6.386;2023-08-24T10:56:57;11.70;;;6.20;;
51578;SDS011;47998;53.242;6.386;2023-08-24T10:59:34;14.18;;;6.47;;
51578;SDS011;47998;53.242;6.386;2023-08-24T11:02:05;13.57;;;6.20;;
51578;SDS011;47998;53.242;6.386;2023-08-24T11:07:31;15.30;;;7.40;;
51578;SDS011;47998;53.242;6.386;2023-08-24T11:09:57;15.13;;;7.25;;
51578;SDS011;47998;53.242;6.386;2023-08-24T11:12:23;13.80;;;7.82;;
51578;SDS011;47998;53.242;6.386;2023-08-24T11:14:49;20.10;;;8.85;;
51578;SDS011;47998;53.242;6.386;2023-08-24T11:17:19;14.18;;;8.07;;
51578;SDS011;47998;53.242;6.386;2023-08-24T11:19:47;11.20;;;7.50;;
51578;SDS011;47998;53.242;6.386;2023-08-24T11:22:18;13.45;;;8.07;;
51578;SDS011;47998;53.242;6.386;2023-08-24T11:24:44;13.05;;;8.70;;
51578;SDS011;47998;53.242;6.386;2023-08-24T11:27:10;12.63;;;8.35;;
51578;SDS011;47998;53.242;6.386;2023-08-24T11:29:36;17.75;;;9.27;;
51578;SDS011;47998;53.242;6.386;2023-08-24T11:32:02;15.05;;;9.20;;
51578;SDS011;47998;53.242;6.386;2023-08-24T11:34:28;19.00;;;9.05;;
51578;SDS011;47998;53.242;6.386;2023-08-24T11:36:55;13.63;;;8.68;;
51578;SDS011;47998;53.242;6.386;2023-08-24T11:39:21;16.52;;;10.32;;
51578;SDS011;47998;53.242;6.386;2023-08-24T11:41:56;20.17;;;10.00;;
51578;SDS011;47998;53.242;6.386;2023-08-24T11:44:29;15.63;;;8.98;;
51578;SDS011;47998;53.242;6.386;2023-08-24T11:47:05;10.73;;;9.45;;
51578;SDS011;47998;53.242;6.386;2023-08-24T11:49:31;15.07;;;8.50;;
51578;SDS011;47998;53.242;6.386;2023-08-24T11:51:58;15.70;;;10.32;;
51578;SDS011;47998;53.242;6.386;2023-08-24T11:54:24;14.25;;;9.70;;
51578;SDS011;47998;53.242;6.386;2023-08-24T11:56:50;12.20;;;8.98;;
51578;SDS011;47998;53.242;6.386;2023-08-24T11:59:16;12.20;;;8.50;;
51578;SDS011;47998;53.242;6.386;2023-08-24T12:01:42;13.80;;;9.48;;
51578;SDS011;47998;53.242;6.386;2023-08-24T12:04:10;16.42;;;9.13;;
51578;SDS011;47998;53.242;6.386;2023-08-24T12:06:37;15.65;;;9.23;;
51578;SDS011;47998;53.242;6.386;2023-08-24T12:09:06;12.55;;;8.50;;
51578;SDS011;47998;53.242;6.386;2023-08-24T12:11:38;14.35;;;10.65;;
51578;SDS011;47998;53.242;6.386;2023-08-24T12:14:04;15.03;;;9.40;;
51578;SDS011;47998;53.242;6.386;2023-08-24T12:16:32;14.30;;;9.18;;
51578;SDS011;47998;53.242;6.386;2023-08-24T12:18:58;17.08;;;10.80;;
51578;SDS011;47998;53.242;6.386;2023-08-24T12:21:28;13.65;;;9.00;;
51578;SDS011;47998;53.242;6.386;2023-08-24T12:26:33;13.10;;;9.48;;
51578;SDS011;47998;53.242;6.386;2023-08-24T12:29:09;12.38;;;9.95;;
51578;SDS011;47998;53.242;6.386;2023-08-24T12:31:35;13.57;;;9.80;;
51578;SDS011;47998;53.242;6.386;2023-08-24T12:34:02;13.60;;;9.68;;
51578;SDS011;47998;53.242;6.386;2023-08-24T12:36:29;11.73;;;8.82;;
51578;SDS011;47998;53.242;6.386;2023-08-24T12:38:57;11.80;;;8.50;;
51578;SDS011;47998;53.242;6.386;2023-08-24T12:41:23;13.77;;;9.15;;
51578;SDS011;47998;53.242;6.386;2023-08-24T12:43:49;15.70;;;8.55;;
51578;SDS011;47998;53.242;6.386;2023-08-24T12:46:16;14.55;;;8.60;;
51578;SDS011;47998;53.242;6.386;2023-08-24T12:48:42;11.45;;;9.30;;
51578;SDS011;47998;53.242;6.386;2023-08-24T12:51:07;17.55;;;9.32;;
51578;SDS011;47998;53.242;6.386;2023-08-24T12:53:33;13.88;;;8.82;;
51578;SDS011;47998;53.242;6.386;2023-08-24T12:55:59;14.30;;;9.70;;
51578;SDS011;47998;53.242;6.386;2023-08-24T12:58:25;12.43;;;9.10;;
51578;SDS011;47998;53.242;6.386;2023-08-24T13:00:50;17.67;;;9.98;;
51578;SDS011;47998;53.242;6.386;2023-08-24T13:03:16;13.60;;;9.00;;
51578;SDS011;47998;53.242;6.386;2023-08-24T13:05:42;11.90;;;9.10;;
51578;SDS011;47998;53.242;6.386;2023-08-24T13:08:08;14.82;;;9.02;;
51578;SDS011;47998;53.242;6.386;2023-08-24T13:10:34;14.50;;;10.05;;
51578;SDS011;47998;53.242;6.386;2023-08-24T13:13:02;13.00;;;9.85;;
51578;SDS011;47998;53.242;6.386;2023-08-24T13:15:28;13.88;;;10.73;;
51578;SDS011;47998;53.242;6.386;2023-08-24T13:17:54;16.83;;;11.65;;
51578;SDS011;47998;53.242;6.386;2023-08-24T13:20:19;15.00;;;10.77;;
51578;SDS011;47998;53.242;6.386;2023-08-24T13:22:45;16.10;;;10.55;;
51578;SDS011;47998;53.242;6.386;2023-08-24T13:25:11;16.15;;;11.52;;
51578;SDS011;47998;53.242;6.386;2023-08-24T13:27:36;19.70;;;12.57;;
51578;SDS011;47998;53.242;6.386;2023-08-24T13:30:02;15.65;;;12.50;;
51578;SDS011;47998;53.242;6.386;2023-08-24T13:32:29;15.27;;;11.88;;
51578;SDS011;47998;53.242;6.386;2023-08-24T13:34:55;19.77;;;13.63;;
51578;SDS011;47998;53.242;6.386;2023-08-24T13:37:21;18.50;;;13.50;;
51578;SDS011;47998;53.242;6.386;2023-08-24T13:39:48;17.25;;;14.13;;
51578;SDS011;47998;53.242;6.386;2023-08-24T13:42:15;15.65;;;14.05;;
51578;SDS011;47998;53.242;6.386;2023-08-24T13:44:40;15.52;;;12.80;;
51578;SDS011;47998;53.242;6.386;2023-08-24T13:47:06;18.65;;;13.25;;
51578;SDS011;47998;53.242;6.386;2023-08-24T13:49:32;16.50;;;12.73;;
51578;SDS011;47998;53.242;6.386;2023-08-24T13:51:58;17.65;;;13.50;;
51578;SDS011;47998;53.242;6.386;2023-08-24T13:54:23;15.85;;;13.25;;
51578;SDS011;47998;53.242;6.386;2023-08-24T13:56:51;17.08;;;14.35;;
51578;SDS011;47998;53.242;6.386;2023-08-24T13:59:18;16.38;;;13.07;;
51578;SDS011;47998;53.242;6.386;2023-08-24T14:01:44;20.27;;;15.48;;
51578;SDS011;47998;53.242;6.386;2023-08-24T14:04:10;19.95;;;15.07;;
51578;SDS011;47998;53.242;6.386;2023-08-24T14:06:36;16.60;;;14.52;;
51578;SDS011;47998;53.242;6.386;2023-08-24T14:09:02;25.08;;;15.15;;
51578;SDS011;47998;53.242;6.386;2023-08-24T14:11:28;18.90;;;15.50;;
51578;SDS011;47998;53.242;6.386;2023-08-24T14:13:55;17.00;;;12.85;;
51578;SDS011;47998;53.242;6.386;2023-08-24T14:16:20;18.23;;;16.30;;
51578;SDS011;47998;53.242;6.386;2023-08-24T14:18:46;20.88;;;15.18;;
51578;SDS011;47998;53.242;6.386;2023-08-24T14:21:13;21.13;;;15.65;;
51578;SDS011;47998;53.242;6.386;2023-08-24T14:23:38;15.98;;;14.27;;
51578;SDS011;47998;53.242;6.386;2023-08-24T14:26:05;16.60;;;14.85;;
51578;SDS011;47998;53.242;6.386;2023-08-24T14:28:47;18.95;;;15.93;;
51578;SDS011;47998;53.242;6.386;2023-08-24T14:31:18;18.33;;;16.42;;
51578;SDS011;47998;53.242;6.386;2023-08-24T14:33:45;21.80;;;16.90;;
51578;SDS011;47998;53.242;6.386;2023-08-24T14:36:10;20.13;;;17.48;;
51578;SDS011;47998;53.242;6.386;2023-08-24T14:38:40;26.40;;;23.15;;
51578;SDS011;47998;53.242;6.386;2023-08-24T14:41:09;22.88;;;17.40;;
51578;SDS011;47998;53.242;6.386;2023-08-24T14:43:36;22.75;;;17.15;;
51578;SDS011;47998;53.242;6.386;2023-08-24T14:46:03;21.83;;;16.00;;
51578;SDS011;47998;53.242;6.386;2023-08-24T14:48:29;17.88;;;15.43;;
51578;SDS011;47998;53.242;6.386;2023-08-24T14:50:55;18.23;;;16.25;;
51578;SDS011;47998;53.242;6.386;2023-08-24T14:53:24;17.58;;;15.55;;